Time;durP1;ratioP1;P1;durP2;ratioP2;P2;SDS_P1;SDS_P2;PMS_P1;PMS_P2;Temp;Humidity;BMP_temperature;BMP_pressure;BME280_temperature;BME280_humidity;BME280_pressure;Samples;Min_cycle;Max_cycle;Signal;HPM_P1;HPM_P2
2023/08/28 00:00:43;;;;;;;17.47;10.10;;;26.30;83.70;;;;;;5020108;28;20206;-60
2023/08/28 00:03:10;;;;;;;14.13;9.93;;;26.30;84.50;;;;;;5020399;28;20211;-60
2023/08/28 00:05:37;;;;;;;17.47;10.03;;;26.30;85.20;;;;;;5022044;28;20223;-60
2023/08/28 00:08:05;;;;;;;16.07;10.60;;;26.30;85.70;;;;;;5019955;28;20298;-60
2023/08/28 00:10:35;;;;;;;14.13;9.80;;;26.20;85.90;;;;;;5026238;28;20240;-60
2023/08/28 00:13:02;;;;;;;19.60;10.90;;;26.20;86.00;;;;;;5022854;28;20200;-60
2023/08/28 00:15:30;;;;;;;12.77;10.50;;;26.20;86.10;;;;;;5021488;28;20685;-61
2023/08/28 00:17:57;;;;;;;13.70;10.83;;;26.10;86.20;;;;;;5027615;28;20220;-60
2023/08/28 00:20:25;;;;;;;18.97;11.50;;;26.10;86.40;;;;;;5015364;28;20539;-60
2023/08/28 00:22:52;;;;;;;14.23;10.77;;;26.10;86.70;;;;;;5019397;28;20338;-60
2023/08/28 00:25:19;;;;;;;14.97;10.73;;;26.10;86.70;;;;;;5026898;28;20233;-60
2023/08/28 00:27:46;;;;;;;15.20;10.77;;;26.10;87.00;;;;;;5022251;28;20217;-60
2023/08/28 00:30:13;;;;;;;11.87;10.37;;;26.00;87.30;;;;;;5022201;28;20565;-60
2023/08/28 00:32:40;;;;;;;15.43;11.43;;;26.00;87.50;;;;;;5025363;28;20543;-60
2023/08/28 00:35:08;;;;;;;17.13;10.77;;;26.00;87.40;;;;;;5023206;28;20206;-60
2023/08/28 00:37:35;;;;;;;15.77;10.90;;;26.00;87.50;;;;;;5023126;28;20265;-60
2023/08/28 00:40:03;;;;;;;11.97;10.83;;;26.00;87.60;;;;;;5035941;28;20318;-60
2023/08/28 00:42:30;;;;;;;15.90;11.17;;;26.00;87.50;;;;;;5028465;28;20290;-60
2023/08/28 00:44:57;;;;;;;12.90;10.53;;;26.00;87.60;;;;;;5029862;28;20722;-60
2023/08/28 00:47:24;;;;;;;13.60;11.80;;;26.00;87.90;;;;;;5018788;28;20215;-60
2023/08/28 00:49:52;;;;;;;14.00;11.47;;;26.00;88.00;;;;;;5036583;28;20819;-60
2023/08/28 00:52:19;;;;;;;14.13;11.10;;;26.00;88.00;;;;;;5017191;28;20199;-60
2023/08/28 00:54:47;;;;;;;13.73;11.13;;;25.90;88.00;;;;;;5023065;28;20211;-60
2023/08/28 00:57:18;;;;;;;17.13;10.90;;;25.90;88.70;;;;;;5027227;28;20638;-60
2023/08/28 00:59:45;;;;;;;20.63;11.77;;;25.80;88.20;;;;;;5021363;28;20238;-60
2023/08/28 01:02:13;;;;;;;25.80;10.70;;;25.80;88.40;;;;;;5028181;28;20224;-60
2023/08/28 01:04:40;;;;;;;15.43;10.80;;;25.80;88.30;;;;;;5024127;28;20214;-60
2023/08/28 01:07:16;;;;;;;11.60;9.90;;;25.90;88.40;;;;;;5021551;28;20210;-60
2023/08/28 01:09:52;;;;;;;14.27;10.47;;;25.90;88.40;;;;;;5019886;28;20206;-60
2023/08/28 01:12:36;;;;;;;15.33;11.03;;;25.90;88.50;;;;;;5021393;28;20210;-60
2023/08/28 01:15:05;;;;;;;19.40;11.50;;;25.90;88.60;;;;;;5022273;28;20253;-61
2023/08/28 01:17:34;;;;;;;13.17;10.73;;;26.00;88.60;;;;;;5022592;28;20204;-60
2023/08/28 01:20:04;;;;;;;11.67;10.37;;;26.00;88.60;;;;;;5028040;28;20272;-60
2023/08/28 01:22:38;;;;;;;14.67;10.60;;;25.90;88.40;;;;;;5025528;28;20211;-60
2023/08/28 01:25:13;;;;;;;11.83;10.73;;;26.00;88.30;;;;;;5025096;28;20211;-60
2023/08/28 01:27:41;;;;;;;13.00;11.50;;;26.00;88.30;;;;;;5026873;28;20204;-59
2023/08/28 01:30:16;;;;;;;15.37;11.40;;;25.90;88.20;;;;;;5026708;28;20287;-59
2023/08/28 01:32:45;;;;;;;12.07;10.47;;;25.90;88.10;;;;;;5021413;28;20203;-60
2023/08/28 01:35:24;;;;;;;11.57;10.37;;;25.90;88.20;;;;;;5023709;28;20207;-60
2023/08/28 01:38:11;;;;;;;14.90;10.73;;;25.90;88.30;;;;;;5023047;28;20223;-60
2023/08/28 01:40:49;;;;;;;16.10;11.87;;;25.80;88.40;;;;;;5024237;28;20265;-60
2023/08/28 01:43:20;;;;;;;17.20;13.53;;;25.80;88.50;;;;;;5028041;28;20204;-60
2023/08/28 01:45:49;;;;;;;15.90;13.60;;;25.80;88.70;;;;;;5024938;28;20313;-59
2023/08/28 01:48:16;;;;;;;25.80;16.03;;;25.80;89.10;;;;;;5024903;28;20209;-60
2023/08/28 01:50:43;;;;;;;17.20;15.50;;;25.80;89.70;;;;;;5025533;28;20210;-60
2023/08/28 01:53:12;;;;;;;16.63;15.13;;;25.80;90.10;;;;;;5026624;28;20200;-60
2023/08/28 01:55:45;;;;;;;19.30;17.30;;;25.90;90.20;;;;;;5026133;28;20595;-60
2023/08/28 01:58:14;;;;;;;20.70;18.50;;;25.90;90.40;;;;;;5028025;28;20602;-60
2023/08/28 02:00:41;;;;;;;19.57;17.53;;;26.00;90.60;;;;;;5033862;28;20208;-60
2023/08/28 02:03:09;;;;;;;17.90;16.03;;;26.00;91.00;;;;;;5027674;28;20656;-60
2023/08/28 02:05:36;;;;;;;14.43;12.70;;;26.10;90.80;;;;;;5026480;28;20248;-60
2023/08/28 02:08:04;;;;;;;19.30;12.60;;;26.10;90.30;;;;;;5026654;28;20663;-60
2023/08/28 02:10:31;;;;;;;15.53;11.80;;;26.10;88.80;;;;;;5027769;28;20194;-59
2023/08/28 02:12:58;;;;;;;14.43;11.93;;;26.10;87.20;;;;;;5031431;28;20205;-60
2023/08/28 02:15:26;;;;;;;16.00;11.90;;;26.20;85.90;;;;;;5032316;28;20242;-60
2023/08/28 02:17:53;;;;;;;17.47;11.10;;;26.20;84.90;;;;;;5028888;28;20230;-60
2023/08/28 02:20:21;;;;;;;12.10;10.17;;;26.30;84.20;;;;;;5032238;28;20203;-60
2023/08/28 02:22:48;;;;;;;13.17;11.43;;;26.30;83.80;;;;;;5025596;28;20260;-60
2023/08/28 02:25:20;;;;;;;14.87;11.20;;;26.40;83.60;;;;;;5026869;28;20226;-60
2023/08/28 02:27:47;;;;;;;14.10;10.50;;;26.40;83.20;;;;;;5030220;28;20617;-60
2023/08/28 02:30:15;;;;;;;12.60;10.43;;;26.40;82.80;;;;;;5027839;28;20213;-60
2023/08/28 02:32:42;;;;;;;15.10;10.67;;;26.40;82.70;;;;;;5028272;28;20207;-60
2023/08/28 02:35:11;;;;;;;13.87;10.10;;;26.40;82.60;;;;;;5023932;28;20642;-60
2023/08/28 02:37:39;;;;;;;13.57;9.47;;;26.40;82.50;;;;;;5024487;28;20284;-60
2023/08/28 02:40:07;;;;;;;10.57;9.43;;;26.30;82.10;;;;;;5024430;28;20652;-60
2023/08/28 02:42:34;;;;;;;19.57;8.47;;;26.30;81.90;;;;;;5024857;28;20599;-60
2023/08/28 02:45:01;;;;;;;9.30;7.17;;;26.30;81.70;;;;;;5024800;28;20690;-60
2023/08/28 02:47:28;;;;;;;11.10;7.70;;;26.20;80.60;;;;;;5026549;28;20203;-60
2023/08/28 02:49:55;;;;;;;10.90;6.83;;;26.20;80.50;;;;;;5024616;28;20219;-60
2023/08/28 02:52:22;;;;;;;13.30;7.53;;;26.10;80.30;;;;;;5021258;28;20293;-60
2023/08/28 02:54:49;;;;;;;9.27;7.10;;;26.20;80.10;;;;;;5024595;28;20519;-60
2023/08/28 02:57:16;;;;;;;10.07;7.13;;;26.10;79.60;;;;;;5023162;28;20216;-60
2023/08/28 02:59:43;;;;;;;13.50;6.87;;;26.10;79.20;;;;;;5026667;28;20215;-60
2023/08/28 03:02:10;;;;;;;8.83;6.87;;;26.10;78.90;;;;;;5022558;28;20265;-60
2023/08/28 03:04:38;;;;;;;13.60;7.80;;;26.10;78.50;;;;;;5022865;28;20223;-60
2023/08/28 03:07:05;;;;;;;27.87;9.60;;;26.00;78.30;;;;;;5025577;28;20211;-62
2023/08/28 03:09:32;;;;;;;13.63;10.20;;;26.00;78.60;;;;;;5029637;28;20206;-61
2023/08/28 03:12:00;;;;;;;15.10;9.80;;;25.90;79.10;;;;;;5023035;28;20226;-61
2023/08/28 03:14:27;;;;;;;14.30;9.33;;;25.70;79.90;;;;;;5031165;28;20231;-61
2023/08/28 03:16:54;;;;;;;10.63;9.53;;;25.60;80.70;;;;;;5019158;28;20275;-61
2023/08/28 03:19:21;;;;;;;13.23;10.10;;;25.50;81.30;;;;;;5028987;28;20680;-61
2023/08/28 03:21:48;;;;;;;10.80;9.63;;;25.40;81.70;;;;;;5022252;28;20214;-61
2023/08/28 03:24:15;;;;;;;15.23;9.93;;;25.20;82.10;;;;;;5030146;28;20547;-61
2023/08/28 03:26:46;;;;;;;14.20;10.00;;;25.10;82.50;;;;;;5019239;28;20231;-61
2023/08/28 03:29:13;;;;;;;10.93;9.77;;;25.00;83.10;;;;;;5026097;28;20637;-61
2023/08/28 03:31:40;;;;;;;15.00;10.10;;;24.90;83.60;;;;;;5022023;28;20203;-61
2023/08/28 03:34:08;;;;;;;17.80;11.17;;;24.80;84.20;;;;;;5024869;28;20214;-61
2023/08/28 03:36:35;;;;;;;18.13;11.77;;;24.80;84.70;;;;;;5019717;28;20200;-61
2023/08/28 03:39:02;;;;;;;15.07;11.27;;;24.70;85.10;;;;;;5023667;28;20227;-61
2023/08/28 03:41:29;;;;;;;18.87;12.73;;;24.70;85.40;;;;;;5017965;28;20203;-61
2023/08/28 03:43:56;;;;;;;14.73;13.30;;;24.60;85.70;;;;;;5021704;28;20216;-61
2023/08/28 03:46:23;;;;;;;17.53;13.97;;;24.60;86.00;;;;;;5027669;28;20234;-61
2023/08/28 03:48:50;;;;;;;15.87;12.80;;;24.60;86.30;;;;;;5023458;28;20203;-61
2023/08/28 03:51:17;;;;;;;18.37;13.80;;;24.60;86.60;;;;;;5020935;28;20199;-61
2023/08/28 03:53:44;;;;;;;17.20;13.50;;;24.60;87.40;;;;;;5023615;28;20679;-61
2023/08/28 03:56:11;;;;;;;17.30;14.00;;;24.60;86.90;;;;;;5023986;28;20230;-61
2023/08/28 03:58:40;;;;;;;15.33;13.57;;;24.60;87.10;;;;;;5023195;28;20282;-61
2023/08/28 04:01:07;;;;;;;14.53;12.90;;;24.60;87.20;;;;;;5028588;28;20626;-61
2023/08/28 04:03:34;;;;;;;20.40;13.83;;;24.50;86.90;;;;;;5017532;28;20231;-61
2023/08/28 04:06:01;;;;;;;20.33;13.80;;;24.50;87.20;;;;;;5025740;28;20223;-61
2023/08/28 04:08:28;;;;;;;21.97;12.83;;;24.50;87.40;;;;;;5029579;28;20641;-62
2023/08/28 04:10:58;;;;;;;17.20;13.27;;;24.50;87.30;;;;;;5021898;28;20214;-61
2023/08/28 04:13:25;;;;;;;21.67;13.00;;;24.50;87.40;;;;;;5029233;28;20209;-61
2023/08/28 04:15:52;;;;;;;14.87;13.40;;;24.50;87.50;;;;;;5026574;28;20242;-61
2023/08/28 04:18:22;;;;;;;13.33;11.80;;;24.50;87.60;;;;;;5022816;28;20232;-61
2023/08/28 04:20:49;;;;;;;16.07;11.40;;;24.50;87.40;;;;;;5023607;28;20571;-61
2023/08/28 04:23:17;;;;;;;10.33;9.23;;;24.60;87.00;;;;;;5020780;28;20258;-61
2023/08/28 04:25:44;;;;;;;10.57;8.27;;;24.60;86.00;;;;;;5024529;28;20213;-61
2023/08/28 04:28:12;;;;;;;12.13;7.70;;;24.60;85.30;;;;;;5024534;28;20210;-61
2023/08/28 04:30:40;;;;;;;9.70;6.97;;;24.60;84.30;;;;;;5021736;28;20586;-61
2023/08/28 04:33:08;;;;;;;10.60;7.20;;;24.70;83.50;;;;;;5022957;28;20278;-61
2023/08/28 04:35:35;;;;;;;8.67;7.20;;;24.70;83.30;;;;;;5026092;28;20205;-61
2023/08/28 04:38:02;;;;;;;6.80;6.10;;;24.70;83.30;;;;;;5027326;28;20321;-60
2023/08/28 04:40:29;;;;;;;9.97;6.67;;;24.60;83.10;;;;;;5021645;28;20271;-62
2023/08/28 04:42:56;;;;;;;6.43;5.43;;;24.70;82.90;;;;;;5028929;28;20204;-62
2023/08/28 04:45:23;;;;;;;6.97;4.97;;;24.70;83.00;;;;;;5029723;28;20219;-62
2023/08/28 04:47:50;;;;;;;7.33;5.20;;;24.60;83.20;;;;;;5018455;28;20200;-63
2023/08/28 04:50:17;;;;;;;7.97;5.17;;;24.50;83.50;;;;;;5023259;28;20219;-62
2023/08/28 04:52:44;;;;;;;4.87;4.40;;;24.50;83.70;;;;;;5026885;28;20621;-62
2023/08/28 04:55:11;;;;;;;6.80;4.73;;;24.40;83.90;;;;;;5028653;28;20203;-62
2023/08/28 04:57:38;;;;;;;7.80;4.27;;;24.40;83.70;;;;;;5024022;28;20230;-62
2023/08/28 05:00:06;;;;;;;8.73;5.20;;;24.40;83.60;;;;;;5029561;28;20294;-62
2023/08/28 05:02:33;;;;;;;7.90;5.27;;;24.30;83.70;;;;;;5017026;28;20611;-62
2023/08/28 05:05:00;;;;;;;6.20;4.93;;;24.30;83.60;;;;;;5039717;28;20223;-62
2023/08/28 05:07:27;;;;;;;8.43;5.30;;;24.30;83.80;;;;;;5020395;28;20616;-62
2023/08/28 05:09:54;;;;;;;7.07;6.37;;;24.30;83.80;;;;;;5022998;28;20216;-62
2023/08/28 05:12:21;;;;;;;9.87;6.53;;;24.30;83.90;;;;;;5020490;28;20202;-61
2023/08/28 05:14:48;;;;;;;8.83;5.73;;;24.30;84.00;;;;;;5029838;28;20231;-61
2023/08/28 05:17:16;;;;;;;10.27;6.73;;;24.30;84.00;;;;;;5022231;28;20203;-61
2023/08/28 05:19:43;;;;;;;9.20;6.23;;;24.30;84.40;;;;;;5022600;28;20203;-62
2023/08/28 05:22:10;;;;;;;9.50;6.53;;;24.30;85.00;;;;;;5025638;28;20246;-62
2023/08/28 05:24:38;;;;;;;7.40;5.80;;;24.30;85.40;;;;;;5035282;28;20254;-61
2023/08/28 05:27:05;;;;;;;6.53;5.90;;;24.40;85.80;;;;;;5020266;28;20200;-61
2023/08/28 05:29:32;;;;;;;8.27;6.10;;;24.40;86.30;;;;;;5024873;28;20200;-61
2023/08/28 05:32:01;;;;;;;9.63;6.00;;;24.40;86.60;;;;;;5018969;28;20202;-63
2023/08/28 05:34:28;;;;;;;8.00;5.97;;;24.40;86.70;;;;;;5029049;28;20196;-61
2023/08/28 05:36:55;;;;;;;9.53;5.37;;;24.30;86.80;;;;;;5027341;28;20533;-60
2023/08/28 05:39:22;;;;;;;8.50;5.30;;;24.40;87.20;;;;;;5016234;28;20686;-61
2023/08/28 05:41:49;;;;;;;7.57;5.27;;;24.40;87.40;;;;;;5030406;28;20204;-61
2023/08/28 05:44:16;;;;;;;9.03;5.30;;;24.50;87.50;;;;;;5025558;28;20227;-61
2023/08/28 05:46:43;;;;;;;7.20;5.60;;;24.50;86.70;;;;;;5023513;28;20234;-61
2023/08/28 05:49:11;;;;;;;10.53;5.50;;;24.50;86.40;;;;;;5027033;28;20208;-61
2023/08/28 05:51:38;;;;;;;7.93;4.33;;;24.60;85.90;;;;;;5018963;28;20214;-60
2023/08/28 05:54:06;;;;;;;6.90;4.50;;;24.60;85.00;;;;;;5023285;28;20640;-61
2023/08/28 05:56:33;;;;;;;6.90;3.63;;;24.70;83.80;;;;;;5023478;28;20201;-62
2023/08/28 05:59:00;;;;;;;4.90;3.20;;;24.70;82.70;;;;;;5019914;28;20204;-62
2023/08/28 06:01:27;;;;;;;9.23;3.37;;;24.80;81.60;;;;;;5021140;28;20336;-61
2023/08/28 06:03:56;;;;;;;9.57;3.53;;;24.80;79.70;;;;;;5028770;28;20238;-63
2023/08/28 06:06:23;;;;;;;9.80;2.93;;;24.90;79.20;;;;;;5024315;28;20219;-61
2023/08/28 06:08:52;;;;;;;7.03;2.40;;;25.00;78.30;;;;;;5021719;28;20213;-62
2023/08/28 06:11:20;;;;;;;6.37;2.63;;;25.10;77.30;;;;;;5021623;28;20226;-62
2023/08/28 06:13:49;;;;;;;12.50;2.87;;;25.20;76.60;;;;;;5018846;28;20211;-61
2023/08/28 06:16:18;;;;;;;6.23;2.97;;;25.30;76.20;;;;;;5016726;28;20613;-62
2023/08/28 06:18:45;;;;;;;9.80;3.23;;;25.40;76.30;;;;;;5005866;28;20236;-62
2023/08/28 06:21:12;;;;;;;6.27;3.33;;;25.40;76.50;;;;;;5016127;28;20552;-61
2023/08/28 06:23:39;;;;;;;8.77;3.60;;;25.50;76.70;;;;;;5021478;28;20218;-60
2023/08/28 06:26:07;;;;;;;9.53;3.27;;;25.50;76.40;;;;;;5015528;28;20771;-61
2023/08/28 06:28:35;;;;;;;6.57;3.10;;;25.50;76.00;;;;;;5020344;28;20205;-61
2023/08/28 06:31:03;;;;;;;7.10;2.80;;;25.50;75.50;;;;;;5016702;28;20241;-61
2023/08/28 06:33:30;;;;;;;5.60;2.90;;;25.60;75.40;;;;;;5014758;28;20207;-62
2023/08/28 06:35:57;;;;;;;8.17;3.00;;;25.60;75.30;;;;;;5023129;28;20218;-62
2023/08/28 06:38:24;;;;;;;9.83;3.50;;;25.70;75.70;;;;;;5020819;28;20233;-60
2023/08/28 06:40:52;;;;;;;7.53;2.77;;;25.70;75.40;;;;;;5032646;28;20211;-61
2023/08/28 06:43:19;;;;;;;7.63;3.17;;;25.80;74.90;;;;;;5023340;28;20588;-61
2023/08/28 06:45:46;;;;;;;7.13;2.83;;;25.90;75.30;;;;;;5019937;28;20310;-62
2023/08/28 06:48:13;;;;;;;6.93;3.03;;;25.90;75.30;;;;;;5021874;28;20199;-62
2023/08/28 06:50:40;;;;;;;8.67;3.47;;;26.00;74.70;;;;;;5023451;28;20584;-62
2023/08/28 06:53:07;;;;;;;9.23;3.30;;;26.00;73.80;;;;;;5022359;28;20199;-62
2023/08/28 06:55:36;;;;;;;14.73;3.00;;;26.10;73.20;;;;;;5019486;28;20213;-62
2023/08/28 06:58:03;;;;;;;7.33;2.67;;;26.10;72.80;;;;;;5022526;28;20211;-62
2023/08/28 07:00:30;;;;;;;9.87;2.77;;;26.10;72.60;;;;;;5022172;28;20202;-62
2023/08/28 07:02:58;;;;;;;5.63;2.83;;;26.10;72.40;;;;;;5022966;28;20207;-62
2023/08/28 07:05:25;;;;;;;5.30;2.50;;;26.10;72.10;;;;;;5024914;28;20214;-62
2023/08/28 07:07:52;;;;;;;14.27;3.27;;;26.20;72.20;;;;;;5024164;28;20224;-62
2023/08/28 07:10:19;;;;;;;7.10;2.10;;;26.20;71.70;;;;;;5026400;28;20207;-62
2023/08/28 07:12:47;;;;;;;8.30;3.00;;;26.30;71.40;;;;;;5023556;28;20216;-61
2023/08/28 07:15:20;;;;;;;7.13;2.40;;;26.40;71.90;;;;;;5025140;28;20318;-61
2023/08/28 07:17:47;;;;;;;4.30;2.50;;;26.50;71.90;;;;;;5025479;28;20636;-61
2023/08/28 07:20:14;;;;;;;5.13;2.07;;;26.50;71.00;;;;;;5024219;28;20559;-61
2023/08/28 07:22:41;;;;;;;6.40;2.70;;;26.60;70.70;;;;;;5023211;28;20200;-61
2023/08/28 07:25:08;;;;;;;4.00;2.27;;;26.80;70.40;;;;;;5026315;28;20218;-61
2023/08/28 07:27:35;;;;;;;5.33;2.67;;;26.90;70.00;;;;;;5023268;28;20628;-61
2023/08/28 07:30:04;;;;;;;8.27;2.63;;;27.10;69.60;;;;;;5024956;28;20195;-61
2023/08/28 07:32:32;;;;;;;6.87;2.40;;;27.30;67.60;;;;;;5030079;28;20515;-62
2023/08/28 07:35:00;;;;;;;7.57;2.20;;;27.40;67.20;;;;;;5023501;28;20209;-62
2023/08/28 07:37:30;;;;;;;8.03;2.73;;;27.60;66.80;;;;;;5023758;28;20256;-61
2023/08/28 07:39:57;;;;;;;5.37;2.83;;;27.70;65.40;;;;;;5024835;28;20203;-61
2023/08/28 07:42:25;;;;;;;8.40;3.13;;;27.80;65.30;;;;;;5021617;28;20527;-61
2023/08/28 07:44:52;;;;;;;7.53;2.63;;;27.90;66.60;;;;;;5022083;28;20219;-61
2023/08/28 07:47:20;;;;;;;12.93;2.37;;;27.90;65.90;;;;;;5025220;28;20251;-61
2023/08/28 07:49:47;;;;;;;5.70;2.10;;;28.00;65.70;;;;;;5023675;28;20257;-61
2023/08/28 07:52:14;;;;;;;6.87;2.20;;;28.00;65.00;;;;;;5024940;28;20206;-61
2023/08/28 07:54:41;;;;;;;9.07;2.43;;;28.00;65.10;;;;;;5018360;28;20279;-61
2023/08/28 07:57:08;;;;;;;5.87;2.10;;;28.00;64.60;;;;;;5023716;28;20286;-61
2023/08/28 07:59:36;;;;;;;9.17;2.43;;;28.10;64.30;;;;;;5018499;28;20668;-61
2023/08/28 08:02:07;;;;;;;9.67;2.27;;;28.10;63.90;;;;;;5025540;28;20248;-61
2023/08/28 08:04:34;;;;;;;5.27;1.70;;;28.20;64.20;;;;;;5021457;28;20508;-61
2023/08/28 08:07:01;;;;;;;6.80;2.47;;;28.30;64.10;;;;;;5023041;28;20230;-61
2023/08/28 08:09:28;;;;;;;6.80;2.13;;;28.30;63.00;;;;;;5018796;28;20192;-61
2023/08/28 08:11:55;;;;;;;8.00;2.30;;;28.40;63.30;;;;;;5027227;28;20199;-62
2023/08/28 08:14:23;;;;;;;7.27;2.27;;;28.50;63.00;;;;;;5018181;28;20305;-61
2023/08/28 08:16:50;;;;;;;4.13;2.00;;;28.60;63.10;;;;;;5019053;28;20313;-61
2023/08/28 08:19:17;;;;;;;7.33;2.73;;;28.70;62.80;;;;;;5027270;28;20261;-62
2023/08/28 08:21:44;;;;;;;6.87;2.17;;;28.80;62.10;;;;;;5020536;28;20586;-61
2023/08/28 08:24:10;;;;;;;4.30;1.73;;;28.90;62.20;;;;;;5023794;28;20195;-61
2023/08/28 08:26:37;;;;;;;7.03;2.50;;;29.10;62.20;;;;;;5026769;28;20633;-61
2023/08/28 08:29:04;;;;;;;6.07;2.37;;;29.20;61.80;;;;;;5020260;28;20192;-61
2023/08/28 08:31:31;;;;;;;4.47;1.77;;;29.40;60.50;;;;;;5022066;28;20210;-61
2023/08/28 08:33:58;;;;;;;6.73;2.00;;;29.50;59.50;;;;;;5024668;28;20222;-61
2023/08/28 08:36:25;;;;;;;8.40;2.40;;;29.60;58.80;;;;;;5022934;28;20204;-61
2023/08/28 08:38:52;;;;;;;9.23;1.93;;;29.50;58.90;;;;;;5023280;28;20299;-62
2023/08/28 08:41:19;;;;;;;7.43;2.07;;;29.60;58.80;;;;;;5024177;28;20545;-61
2023/08/28 08:43:46;;;;;;;6.30;2.17;;;29.50;59.00;;;;;;5019821;28;20241;-61
2023/08/28 08:46:13;;;;;;;10.10;2.17;;;29.60;59.40;;;;;;5026578;28;20314;-61
2023/08/28 08:48:42;;;;;;;6.57;1.70;;;29.60;59.10;;;;;;5023703;28;20685;-60
2023/08/28 08:51:10;;;;;;;9.70;2.20;;;29.50;58.50;;;;;;5022680;28;20660;-61
2023/08/28 08:53:45;;;;;;;6.33;2.03;;;29.50;58.40;;;;;;5028041;28;20206;-61
2023/08/28 08:56:17;;;;;;;4.60;2.23;;;29.40;56.70;;;;;;5021708;28;20215;-61
2023/08/28 08:58:46;;;;;;;8.90;2.33;;;29.30;57.00;;;;;;5022205;28;20653;-61
2023/08/28 09:01:15;;;;;;;5.47;2.57;;;29.30;57.40;;;;;;5022855;28;20289;-61
2023/08/28 09:03:43;;;;;;;8.93;2.33;;;29.50;57.40;;;;;;5021233;28;20518;-61
2023/08/28 09:06:11;;;;;;;5.87;2.03;;;29.70;57.00;;;;;;5022953;28;20297;-61
2023/08/28 09:08:41;;;;;;;4.37;1.87;;;29.70;55.90;;;;;;5021194;28;20205;-62
2023/08/28 09:11:08;;;;;;;6.47;1.87;;;29.90;55.60;;;;;;5018712;28;20195;-61
2023/08/28 09:13:38;;;;;;;4.77;1.90;;;30.10;55.80;;;;;;5020917;28;20523;-61
2023/08/28 09:16:05;;;;;;;4.73;1.83;;;30.40;55.40;;;;;;5023338;28;20243;-61
2023/08/28 09:18:32;;;;;;;5.53;1.93;;;30.70;54.90;;;;;;5018530;28;20204;-61
2023/08/28 09:21:12;;;;;;;3.90;2.20;;;31.00;54.90;;;;;;5017312;28;20210;-61
2023/08/28 09:23:47;;;;;;;9.47;2.80;;;31.20;53.10;;;;;;5018780;28;20273;-61
2023/08/28 09:26:21;;;;;;;7.67;1.87;;;31.40;53.30;;;;;;5016298;28;20307;-62
2023/08/28 09:29:01;;;;;;;8.30;2.20;;;31.60;52.90;;;;;;5018075;28;20195;-61
2023/08/28 09:31:30;;;;;;;5.90;1.73;;;31.80;51.90;;;;;;5021655;28;20206;-62
2023/08/28 09:33:57;;;;;;;3.97;1.80;;;32.00;51.60;;;;;;5020771;28;20257;-61
2023/08/28 09:36:36;;;;;;;6.77;1.80;;;32.10;51.10;;;;;;5023482;28;20227;-61
2023/08/28 09:39:06;;;;;;;6.07;2.33;;;32.20;50.20;;;;;;5021276;28;20199;-61
2023/08/28 09:41:43;;;;;;;6.50;1.70;;;32.40;50.30;;;;;;5022568;28;20289;-61
2023/08/28 09:44:11;;;;;;;6.23;2.10;;;32.60;49.70;;;;;;5016056;28;20208;-61
2023/08/28 09:46:38;;;;;;;5.50;2.03;;;32.80;49.70;;;;;;5027202;28;20219;-61
2023/08/28 09:49:07;;;;;;;6.43;2.10;;;32.90;48.30;;;;;;5016915;28;20234;-61
2023/08/28 09:51:52;;;;;;;5.53;1.90;;;33.00;47.70;;;;;;5019103;28;20188;-61
2023/08/28 09:54:23;;;;;;;5.37;1.90;;;33.10;47.60;;;;;;5022806;28;20275;-61
2023/08/28 09:56:51;;;;;;;4.80;1.77;;;33.20;47.30;;;;;;5020064;28;20233;-61
2023/08/28 09:59:19;;;;;;;8.70;1.77;;;33.30;47.20;;;;;;5021259;28;20211;-61
2023/08/28 10:01:47;;;;;;;3.50;1.77;;;33.40;47.00;;;;;;5023554;28;20198;-62
2023/08/28 10:04:16;;;;;;;4.03;2.10;;;33.50;47.20;;;;;;5019710;28;20211;-61
2023/08/28 10:06:52;;;;;;;5.73;1.60;;;33.60;47.30;;;;;;5023347;28;20223;-61
2023/08/28 10:09:22;;;;;;;7.83;1.93;;;33.60;45.60;;;;;;5023111;28;20277;-61
2023/08/28 10:11:50;;;;;;;2.53;1.63;;;33.70;46.20;;;;;;5027005;28;20258;-61
2023/08/28 10:14:20;;;;;;;5.17;2.03;;;33.80;45.90;;;;;;5024759;28;20239;-61
2023/08/28 10:17:00;;;;;;;3.50;2.20;;;34.00;45.60;;;;;;5026495;28;20261;-61
2023/08/28 10:19:38;;;;;;;9.87;2.63;;;34.10;45.20;;;;;;5023005;28;20274;-61
2023/08/28 10:22:07;;;;;;;3.20;1.80;;;34.30;44.60;;;;;;5023874;28;20214;-61
2023/08/28 10:24:41;;;;;;;5.00;2.30;;;34.20;43.50;;;;;;5024962;28;20227;-61
2023/08/28 10:27:10;;;;;;;5.97;2.00;;;34.10;44.10;;;;;;5026195;28;20238;-61
2023/08/28 10:29:39;;;;;;;8.03;1.93;;;34.00;45.00;;;;;;5026793;28;20199;-61
2023/08/28 10:32:10;;;;;;;5.10;2.27;;;34.00;45.10;;;;;;5021809;28;21288;-61
2023/08/28 10:34:39;;;;;;;5.40;2.07;;;34.00;44.10;;;;;;5026832;28;20558;-61
2023/08/28 10:37:08;;;;;;;6.53;2.10;;;33.80;43.80;;;;;;5027246;28;20536;-61
2023/08/28 10:39:57;;;;;;;5.43;2.43;;;33.50;44.50;;;;;;5022999;28;20211;-61
2023/08/28 10:42:26;;;;;;;7.87;2.33;;;33.10;46.40;;;;;;5022358;28;20306;-61
2023/08/28 10:44:54;;;;;;;6.73;2.73;;;32.70;47.70;;;;;;5023589;28;20273;-61
2023/08/28 10:47:21;;;;;;;14.40;2.83;;;32.30;48.70;;;;;;5019696;28;20226;-61
2023/08/28 10:49:52;;;;;;;9.77;2.47;;;31.90;50.20;;;;;;5020868;28;20218;-62
2023/08/28 10:52:20;;;;;;;7.67;2.97;;;31.60;52.10;;;;;;5027187;28;20203;-61
2023/08/28 10:54:47;;;;;;;18.67;3.50;;;31.20;54.10;;;;;;5020713;28;20278;-61
2023/08/28 10:57:26;;;;;;;12.00;3.17;;;30.90;56.80;;;;;;5019743;28;20300;-61
2023/08/28 10:59:58;;;;;;;12.37;3.50;;;30.70;59.10;;;;;;5023076;28;20649;-62
2023/08/28 11:02:46;;;;;;;9.43;2.80;;;30.30;59.40;;;;;;5021262;28;20596;-61
2023/08/28 11:05:14;;;;;;;8.33;3.00;;;29.90;60.40;;;;;;5019201;28;20696;-61
2023/08/28 11:07:42;;;;;;;5.23;2.77;;;29.60;61.20;;;;;;5026348;28;20226;-61
2023/08/28 11:10:20;;;;;;;8.07;2.63;;;29.30;61.20;;;;;;5021651;28;20582;-61
2023/08/28 11:12:53;;;;;;;7.80;3.00;;;29.20;62.20;;;;;;5024475;28;20219;-61
2023/08/28 11:15:28;;;;;;;7.40;3.07;;;29.00;63.00;;;;;;5027445;28;20236;-61
2023/08/28 11:18:28;;;;;;;6.87;2.80;;;28.90;64.70;;;;;;5026612;28;20207;-62
2023/08/28 11:21:00;;;;;;;7.70;2.90;;;28.90;66.90;;;;;;4983964;28;20216;-63
2023/08/28 11:23:36;;;;;;;8.40;3.30;;;28.90;69.40;;;;;;5025346;28;20200;-62
2023/08/28 11:26:25;;;;;;;8.90;3.60;;;28.90;68.70;;;;;;5023875;28;20203;-62
2023/08/28 11:28:52;;;;;;;8.20;3.67;;;28.90;69.00;;;;;;5022214;28;20192;-62
2023/08/28 11:31:19;;;;;;;8.80;3.23;;;28.70;69.30;;;;;;5022819;28;20199;-62
2023/08/28 11:33:52;;;;;;;12.30;3.33;;;28.60;69.70;;;;;;5025146;28;20202;-62
2023/08/28 11:36:19;;;;;;;4.47;2.77;;;28.60;69.50;;;;;;5027962;28;20287;-61
2023/08/28 11:38:48;;;;;;;7.23;2.90;;;28.50;68.50;;;;;;5025592;28;20208;-62
2023/08/28 11:41:16;;;;;;;7.47;2.97;;;28.40;68.40;;;;;;5023539;28;20200;-62
2023/08/28 11:43:44;;;;;;;5.53;2.60;;;28.40;68.90;;;;;;5023231;28;20741;-62
2023/08/28 11:46:12;;;;;;;8.97;3.10;;;28.30;70.20;;;;;;5025058;28;20235;-62
2023/08/28 11:48:43;;;;;;;7.43;3.17;;;28.30;70.10;;;;;;5031414;28;20196;-62
2023/08/28 11:51:12;;;;;;;5.13;2.97;;;28.30;69.90;;;;;;5020935;28;20291;-62
2023/08/28 11:53:41;;;;;;;6.53;3.00;;;28.20;69.40;;;;;;5024176;28;20209;-62
2023/08/28 11:56:13;;;;;;;13.17;3.40;;;28.10;69.20;;;;;;5025204;28;20246;-63
2023/08/28 12:03:06;;;;;;;23.20;6.27;;;27.90;71.40;;;;;;5022462;28;20270;-63
2023/08/28 12:05:35;;;;;;;27.67;5.43;;;27.60;73.10;;;;;;5027088;28;20211;-62
2023/08/28 12:08:02;;;;;;;17.20;5.07;;;27.30;74.50;;;;;;5017651;28;20683;-63
2023/08/28 12:10:29;;;;;;;14.20;3.63;;;26.90;75.20;;;;;;5023691;28;20625;-63
2023/08/28 12:12:56;;;;;;;19.10;4.10;;;26.60;77.00;;;;;;5022710;28;20618;-63
2023/08/28 12:15:33;;;;;;;11.20;4.00;;;26.30;78.40;;;;;;5020790;28;20246;-63
2023/08/28 12:18:03;;;;;;;12.37;3.57;;;26.00;79.70;;;;;;5027957;28;20269;-63
2023/08/28 12:20:32;;;;;;;9.13;3.40;;;25.80;81.20;;;;;;5022659;28;20211;-63
2023/08/28 12:22:59;;;;;;;6.07;2.87;;;25.80;82.80;;;;;;5020588;28;20642;-63
2023/08/28 12:25:35;;;;;;;9.63;2.70;;;25.70;83.50;;;;;;5022982;28;20572;-63
2023/08/28 12:28:07;;;;;;;7.43;2.27;;;25.70;83.90;;;;;;5022011;28;20219;-62
2023/08/28 12:30:39;;;;;;;8.80;2.60;;;25.60;83.70;;;;;;5018368;28;20207;-63
2023/08/28 12:33:07;;;;;;;10.77;3.23;;;25.60;84.20;;;;;;5019283;28;20208;-63
2023/08/28 12:35:38;;;;;;;8.47;2.77;;;25.60;84.90;;;;;;5024905;28;20561;-63
2023/08/28 12:38:06;;;;;;;10.40;2.87;;;25.80;85.40;;;;;;5016791;28;20664;-63
2023/08/28 12:40:37;;;;;;;5.93;2.10;;;25.90;85.10;;;;;;5025015;28;20203;-63
2023/08/28 12:43:11;;;;;;;3.83;2.07;;;25.90;84.20;;;;;;5035577;28;20622;-63
2023/08/28 12:45:38;;;;;;;3.77;2.23;;;25.90;83.40;;;;;;5017400;28;20195;-63
2023/08/28 12:48:05;;;;;;;4.83;2.00;;;25.90;82.60;;;;;;5023166;28;20219;-63
2023/08/28 12:50:33;;;;;;;8.17;2.07;;;25.90;82.40;;;;;;5018829;28;20276;-63
2023/08/28 12:53:00;;;;;;;4.83;2.10;;;26.00;82.60;;;;;;5020102;28;20292;-63